createdAt,value
2022-10-11T00:05:48.143Z,7.78
2022-10-11T00:16:13.302Z,8.90
2022-10-11T00:26:34.828Z,13.60
2022-10-11T00:36:57.984Z,11.30
2022-10-11T00:47:21.229Z,9.85
2022-10-11T00:57:49.420Z,9.45
2022-10-11T01:08:11.025Z,11.68
2022-10-11T01:18:39.234Z,14.45
2022-10-11T01:29:11.788Z,17.83
2022-10-11T01:39:39.566Z,26.63
2022-10-11T01:50:02.456Z,12.05
2022-10-11T02:00:31.766Z,7.85
2022-10-11T02:10:59.724Z,16.33
2022-10-11T02:21:24.352Z,11.40
2022-10-11T02:31:46.780Z,32.95
2022-10-11T02:42:15.259Z,8.95
2022-10-11T02:52:36.687Z,11.07
2022-10-11T03:02:59.338Z,17.10
2022-10-11T03:13:20.744Z,11.63
2022-10-11T03:23:43.150Z,10.00
2022-10-11T03:34:04.731Z,16.35
2022-10-11T03:44:27.860Z,8.80
2022-10-11T03:54:49.454Z,19.80
2022-10-11T04:05:12.624Z,23.50
2022-10-11T04:15:34.221Z,6.97
2022-10-11T04:25:56.951Z,23.15
2022-10-11T04:36:18.186Z,19.70
2022-10-11T04:46:40.730Z,17.38
2022-10-11T04:57:02.017Z,13.15
2022-10-11T05:07:24.691Z,17.10
2022-10-11T05:17:45.896Z,17.00
2022-10-11T05:28:08.746Z,9.18
2022-10-11T05:38:30.642Z,20.02
2022-10-11T05:48:53.481Z,16.98
2022-10-11T05:59:15.196Z,16.20
2022-10-11T06:09:37.666Z,14.40
2022-10-11T06:19:59.282Z,14.15
2022-10-11T06:30:21.747Z,17.38
2022-10-11T06:40:43.276Z,17.73
2022-10-11T06:51:06.392Z,20.10
2022-10-11T07:01:28.550Z,22.38
2022-10-11T07:11:51.249Z,19.33
2022-10-11T07:22:12.795Z,16.73
2022-10-11T07:32:35.600Z,18.60
2022-10-11T07:42:58.288Z,14.20
2022-10-11T07:53:21.340Z,19.50
2022-10-11T08:03:43.051Z,7.97
2022-10-11T08:14:08.842Z,14.80
2022-10-11T08:24:33.542Z,8.20
2022-10-11T08:35:00.251Z,6.30
2022-10-11T08:45:29.496Z,11.63
2022-10-11T08:55:53.480Z,22.60
2022-10-11T09:06:27.083Z,17.90
2022-10-11T09:17:00.655Z,9.93
2022-10-11T09:27:43.659Z,8.25
2022-10-11T09:38:19.134Z,13.05
2022-10-11T09:48:42.539Z,7.10
2022-10-11T09:59:19.691Z,14.07
2022-10-11T10:09:41.074Z,11.32
2022-10-11T10:20:05.648Z,8.82
2022-10-11T10:30:29.795Z,7.87
2022-10-11T10:40:59.050Z,7.55
2022-10-11T10:51:35.000Z,9.60
2022-10-11T11:02:21.445Z,13.65
2022-10-11T11:12:50.804Z,15.55
2022-10-11T11:23:23.436Z,6.28
2022-10-11T11:33:54.695Z,12.07
2022-10-11T11:44:27.168Z,15.15
2022-10-11T11:54:53.128Z,19.45
2022-10-11T12:05:18.129Z,10.70
2022-10-11T12:15:39.719Z,8.75
2022-10-11T12:26:32.013Z,11.25
2022-10-11T12:36:53.763Z,9.23
2022-10-11T12:47:35.407Z,14.55
2022-10-11T12:58:41.296Z,7.53
2022-10-11T13:09:08.006Z,10.15
2022-10-11T13:19:30.942Z,10.32
2022-10-11T13:29:56.160Z,9.55
2022-10-11T13:40:21.105Z,7.17
2022-10-11T13:50:46.525Z,14.53
2022-10-11T14:01:20.235Z,5.80
2022-10-11T14:11:43.273Z,11.77
2022-10-11T14:22:05.668Z,15.32
2022-10-11T14:32:31.774Z,23.55
2022-10-11T14:42:53.594Z,13.60
2022-10-11T14:53:16.611Z,14.98
2022-10-11T15:03:37.907Z,12.57
2022-10-11T15:14:06.347Z,14.25
2022-10-11T15:24:29.171Z,21.70
2022-10-11T15:34:52.314Z,23.85
2022-10-11T15:45:17.091Z,21.50
2022-10-11T15:55:44.637Z,19.95
2022-10-11T16:06:09.232Z,20.05
2022-10-11T16:16:32.215Z,18.48
2022-10-11T16:26:53.988Z,25.55
2022-10-11T16:37:22.195Z,17.23
2022-10-11T16:47:53.794Z,26.80
2022-10-11T16:58:16.950Z,18.45
2022-10-11T17:08:51.912Z,23.65
2022-10-11T17:19:16.967Z,26.50
2022-10-11T17:29:41.729Z,26.70
2022-10-11T17:40:06.894Z,22.25
2022-10-11T17:50:28.349Z,15.48
2022-10-11T18:00:51.018Z,26.15
2022-10-11T18:11:14.127Z,30.80
2022-10-11T18:21:40.315Z,31.17
2022-10-11T18:32:01.515Z,25.27
2022-10-11T18:42:26.384Z,32.28
2022-10-11T18:52:48.592Z,34.83
2022-10-11T19:03:11.382Z,37.17
2022-10-11T19:13:33.271Z,21.30
2022-10-11T19:23:59.652Z,45.45
2022-10-11T19:34:21.276Z,40.07
2022-10-11T19:44:43.979Z,28.23
2022-10-11T19:55:05.712Z,38.80
2022-10-11T20:05:31.903Z,37.47
2022-10-11T20:16:05.103Z,31.52
2022-10-11T20:26:32.161Z,48.72
2022-10-11T20:47:23.020Z,28.50
2022-10-11T20:57:52.053Z,46.50
2022-10-11T21:08:16.177Z,29.42
2022-10-11T21:18:37.846Z,30.38
2022-10-11T21:29:00.706Z,28.23
2022-10-11T21:39:22.099Z,28.05
2022-10-11T21:49:45.040Z,24.02
2022-10-11T22:00:10.026Z,37.72
2022-10-11T22:10:36.346Z,27.17
2022-10-11T22:21:04.213Z,31.67
2022-10-11T22:31:27.708Z,32.03
2022-10-11T22:41:48.980Z,35.00
2022-10-11T22:52:11.475Z,36.90
2022-10-11T23:02:32.517Z,27.42
2022-10-11T23:12:55.362Z,35.70
2022-10-11T23:23:17.200Z,63.42
2022-10-11T23:33:40.102Z,36.08
2022-10-11T23:44:01.552Z,44.88
2022-10-11T23:54:24.134Z,28.42
